Time;durP1;ratioP1;P1;durP2;ratioP2;P2;SDS_P1;SDS_P2;PMS_P1;PMS_P2;Temp;Humidity;BMP_temperature;BMP_pressure;BME280_temperature;BME280_humidity;BME280_pressure;Samples;Min_cycle;Max_cycle;Signal;HPM_P1;HPM_P2
2023/01/05 00:00:25;;;;;;;70.03;38.97;;;;;;;9.28;100.00;101636.41;5014631;28;20037;-73
2023/01/05 00:02:50;;;;;;;60.85;33.08;;;;;;;9.27;100.00;101640.78;5011940;28;20030;-73
2023/01/05 00:05:16;;;;;;;68.22;37.13;;;;;;;9.28;100.00;101636.41;5015830;28;20124;-73
2023/01/05 00:07:42;;;;;;;74.90;38.83;;;;;;;9.29;100.00;101635.47;5012238;28;20111;-73
2023/01/05 00:22:29;;;;;;;66.38;38.75;;;;;;;9.31;100.00;101638.78;5011886;28;20163;-73
2023/01/05 00:23:57;;;;;;;68.95;41.42;;;;;;;9.25;100.00;101616.66;5013000;28;20063;-73
2023/01/05 00:26:23;;;;;;;74.07;40.83;;;;;;;9.24;100.00;101617.59;5014778;28;20425;-73
2023/01/05 00:28:48;;;;;;;77.10;42.35;;;;;;;9.23;100.00;101612.50;5014918;28;20034;-73
2023/01/05 00:31:14;;;;;;;78.43;42.00;;;;;;;9.23;100.00;101612.50;5018977;28;20481;-73
2023/01/05 00:33:39;;;;;;;76.22;43.75;;;;;;;9.23;100.00;101610.72;5013359;28;20045;-73
2023/01/05 00:36:09;;;;;;;79.43;42.88;;;;;;;9.25;100.00;101608.84;5008856;28;20022;-73
2023/01/05 00:38:34;;;;;;;70.57;40.47;;;;;;;9.28;100.00;101607.81;5011720;28;20432;-73
2023/01/05 00:41:00;;;;;;;82.20;43.70;;;;;;;9.32;100.00;101609.25;5007317;28;20037;-73
2023/01/05 00:43:25;;;;;;;83.07;43.17;;;;;;;9.34;100.00;101601.34;5009045;28;20378;-73
2023/01/05 00:45:50;;;;;;;73.63;41.17;;;;;;;9.30;100.00;101598.97;5012442;28;20493;-73
2023/01/05 00:48:16;;;;;;;77.57;42.17;;;;;;;9.27;100.00;101590.53;5007880;28;20103;-73
2023/01/05 00:50:41;;;;;;;75.38;40.25;;;;;;;9.27;100.00;101585.34;5014295;28;20022;-73
2023/01/05 00:53:07;;;;;;;77.10;43.00;;;;;;;9.22;100.00;101577.84;5014918;28;20022;-73
2023/01/05 00:55:33;;;;;;;79.97;41.72;;;;;;;9.23;100.00;101583.88;5011957;28;20038;-73
2023/01/05 00:57:58;;;;;;;75.43;44.65;;;;;;;9.18;100.00;101589.41;5013221;28;20421;-73
2023/01/05 01:00:24;;;;;;;78.10;44.03;;;;;;;9.15;100.00;101578.41;5015932;28;20048;-73
2023/01/05 01:02:51;;;;;;;88.18;45.45;;;;;;;9.15;100.00;101578.41;5010873;28;20030;-73
2023/01/05 01:05:17;;;;;;;84.28;45.33;;;;;;;9.16;100.00;101574.84;5017221;28;20069;-73
2023/01/05 01:07:43;;;;;;;85.85;45.40;;;;;;;9.17;100.00;101568.72;5008058;28;20461;-73
2023/01/05 01:10:09;;;;;;;82.75;45.70;;;;;;;9.18;100.00;101576.41;5009767;28;20166;-73
2023/01/05 01:12:35;;;;;;;85.25;46.15;;;;;;;9.18;100.00;101563.41;5009067;28;20500;-73
2023/01/05 01:15:01;;;;;;;82.65;43.40;;;;;;;9.17;100.00;101564.34;5010753;28;20117;-73
2023/01/05 01:17:26;;;;;;;76.47;42.28;;;;;;;9.19;100.00;101570.28;5007258;28;20113;-73
2023/01/05 01:19:51;;;;;;;84.75;44.40;;;;;;;9.17;100.00;101571.31;5016797;28;20030;-73
2023/01/05 01:22:17;;;;;;;85.63;46.47;;;;;;;9.18;100.00;101565.19;5010414;28;20026;-73
2023/01/05 01:24:42;;;;;;;82.60;46.92;;;;;;;9.18;100.00;101568.59;5011007;28;20063;-73
2023/01/05 01:27:08;;;;;;;76.63;43.47;;;;;;;9.21;100.00;101551.97;5011636;28;20041;-73
2023/01/05 01:29:33;;;;;;;78.65;41.33;;;;;;;9.21;100.00;101554.56;5010823;28;20090;-73
2023/01/05 01:31:59;;;;;;;73.03;39.72;;;;;;;9.22;100.00;101561.44;5018082;28;20124;-73
2023/01/05 01:34:24;;;;;;;78.82;42.03;;;;;;;9.21;100.00;101559.75;5013138;28;20034;-73
2023/01/05 01:36:50;;;;;;;78.57;42.20;;;;;;;9.23;100.00;101557.88;5010424;28;20482;-73
2023/01/05 01:39:16;;;;;;;72.65;39.17;;;;;;;9.23;100.00;101558.72;5016586;28;20045;-73
2023/01/05 01:41:41;;;;;;;81.80;41.40;;;;;;;9.24;100.00;101551.75;5011131;28;20026;-73
2023/01/05 01:44:47;;;;;;;76.07;41.30;;;;;;;9.22;100.00;101551.84;5008681;28;20350;-73
2023/01/05 01:47:35;;;;;;;72.65;38.08;;;;;;;9.21;100.00;101550.19;5018285;28;20033;-73
2023/01/05 01:50:25;;;;;;;77.05;41.15;;;;;;;9.24;100.00;101538.75;5005265;28;20029;-73
2023/01/05 01:52:55;;;;;;;84.18;42.22;;;;;;;9.25;100.00;101537.81;5005266;28;20042;-73
2023/01/05 01:55:21;;;;;;;80.55;41.95;;;;;;;9.28;100.00;101540.19;5008885;28;20465;-73
2023/01/05 01:57:48;;;;;;;74.32;41.03;;;;;;;9.28;100.00;101538.41;5014138;28;20029;-73
2023/01/05 02:00:14;;;;;;;70.60;40.53;;;;;;;9.29;100.00;101531.44;5013181;28;20109;-73
2023/01/05 02:02:40;;;;;;;76.35;40.92;;;;;;;9.29;100.00;101526.25;5011280;28;20128;-74
2023/01/05 02:05:10;;;;;;;82.78;44.65;;;;;;;9.29;100.00;101527.06;5016526;28;20079;-74
2023/01/05 02:07:44;;;;;;;84.20;43.67;;;;;;;9.28;100.00;101521.97;4999960;28;20511;-74
2023/01/05 02:10:10;;;;;;;73.15;42.47;;;;;;;9.28;100.00;101535.00;5009712;28;20105;-73
2023/01/05 02:12:38;;;;;;;83.32;43.95;;;;;;;9.29;100.00;101531.44;5012888;28;20623;-72
2023/01/05 02:15:31;;;;;;;82.80;45.30;;;;;;;9.25;100.00;101527.41;5009750;28;20040;-73
2023/01/05 02:18:25;;;;;;;86.22;44.50;;;;;;;9.26;100.00;101516.88;5009382;28;20045;-73
2023/01/05 02:21:00;;;;;;;79.05;42.30;;;;;;;9.24;100.00;101517.94;4997320;28;20448;-73
2023/01/05 02:23:59;;;;;;;76.15;41.40;;;;;;;9.25;100.00;101517.84;5008246;28;20034;-73
2023/01/05 02:26:40;;;;;;;77.82;42.70;;;;;;;9.26;100.00;101511.69;5009497;28;20377;-73
2023/01/05 02:29:20;;;;;;;84.18;43.63;;;;;;;9.28;100.00;101508.97;5013280;28;20085;-73
2023/01/05 02:31:51;;;;;;;78.93;42.25;;;;;;;9.27;100.00;101508.16;5009579;28;20063;-73
2023/01/05 02:34:26;;;;;;;80.57;41.17;;;;;;;9.29;100.00;101505.44;5016845;28;20033;-73
2023/01/05 02:37:09;;;;;;;79.82;42.63;;;;;;;9.28;100.00;101498.56;5015153;28;20048;-73
2023/01/05 02:39:52;;;;;;;80.80;41.88;;;;;;;9.25;100.00;101489.22;5015889;28;20128;-73
2023/01/05 02:42:23;;;;;;;80.50;44.92;;;;;;;9.28;100.00;101488.19;5015629;28;20045;-73
2023/01/05 02:44:48;;;;;;;85.65;42.90;;;;;;;9.29;100.00;101476.84;5013410;28;20030;-73
2023/01/05 02:47:23;;;;;;;73.18;40.95;;;;;;;9.29;100.00;101485.47;5012703;28;20041;-73
2023/01/05 02:49:55;;;;;;;71.53;38.70;;;;;;;9.28;100.00;101480.38;5006300;28;20030;-73
2023/01/05 02:52:21;;;;;;;68.90;36.08;;;;;;;9.28;100.00;101473.41;5014923;28;20049;-73
2023/01/05 02:54:52;;;;;;;78.55;43.50;;;;;;;9.31;100.00;101472.34;5023877;28;20100;-73
2023/01/05 02:57:45;;;;;;;76.63;42.00;;;;;;;9.30;100.00;101466.31;5017482;28;20116;-73
2023/01/05 03:00:18;;;;;;;73.80;40.40;;;;;;;9.31;100.00;101457.56;5016655;28;20042;-73
2023/01/05 03:02:48;;;;;;;78.60;40.83;;;;;;;9.32;100.00;101466.22;5010616;28;20069;-73
2023/01/05 03:05:20;;;;;;;76.43;42.80;;;;;;;9.31;100.00;101464.56;5016120;28;20038;-73
2023/01/05 03:07:49;;;;;;;83.75;41.88;;;;;;;9.29;100.00;101469.03;5010225;28;20033;-73
2023/01/05 03:15:57;;;;;;;82.05;39.35;;;;;;;9.26;100.00;101458.84;5013339;28;20070;-73
2023/01/05 03:18:25;;;;;;;83.43;41.03;;;;;;;9.29;100.00;101450.81;5014964;28;20501;-74
2023/01/05 03:20:53;;;;;;;79.00;41.13;;;;;;;9.29;100.00;101456.03;5011673;28;20124;-73
2023/01/05 03:37:35;;;;;;;73.75;37.40;;;;;;;9.27;100.00;101448.34;5009578;28;20095;-74
2023/01/05 03:40:03;;;;;;;77.57;38.95;;;;;;;9.27;100.00;101447.50;5014043;28;20414;-73
2023/01/05 03:42:29;;;;;;;81.70;41.28;;;;;;;9.27;100.00;101448.34;5012738;28;20034;-73
2023/01/05 03:44:55;;;;;;;75.53;43.85;;;;;;;9.25;100.00;101444.19;5011614;28;20033;-73
2023/01/05 03:47:22;;;;;;;78.47;42.85;;;;;;;9.24;100.00;101439.94;5008364;28;20458;-73
2023/01/05 03:49:47;;;;;;;74.22;40.90;;;;;;;9.24;100.00;101435.56;5011237;28;20060;-73
2023/01/05 03:52:13;;;;;;;80.72;45.22;;;;;;;9.24;100.00;101434.72;5014754;28;20061;-73
2023/01/05 03:54:38;;;;;;;85.00;45.53;;;;;;;9.22;100.00;101418.41;5009534;28;20096;-73
2023/01/05 03:57:04;;;;;;;76.30;41.67;;;;;;;9.20;100.00;101418.53;5017246;28;20390;-73
2023/01/05 03:59:29;;;;;;;80.88;45.40;;;;;;;9.21;100.00;101419.34;5015196;28;20045;-73
2023/01/05 04:01:55;;;;;;;81.47;43.75;;;;;;;9.19;100.00;101419.47;5009590;28;20046;-73
2023/01/05 04:04:20;;;;;;;84.72;44.38;;;;;;;9.21;100.00;101419.34;5020897;28;20045;-73
2023/01/05 04:06:46;;;;;;;80.22;44.75;;;;;;;9.20;100.00;101415.91;5012864;28;20032;-73
2023/01/05 04:09:11;;;;;;;89.60;46.60;;;;;;;9.20;100.00;101422.88;5013315;28;20036;-73
2023/01/05 04:11:36;;;;;;;85.15;45.35;;;;;;;9.21;100.00;101432.34;5016046;28;20420;-73
2023/01/05 04:14:02;;;;;;;77.63;42.50;;;;;;;9.21;100.00;101429.75;5012565;28;20030;-73
2023/01/05 04:16:28;;;;;;;71.07;43.50;;;;;;;9.22;100.00;101423.59;5012323;28;20026;-73
2023/01/05 04:18:54;;;;;;;79.57;43.33;;;;;;;9.21;100.00;101427.97;5017732;28;20095;-73
2023/01/05 04:21:19;;;;;;;83.00;46.60;;;;;;;9.22;100.00;101426.22;5010177;28;20033;-73
2023/01/05 04:23:44;;;;;;;84.93;46.50;;;;;;;9.20;100.00;101413.31;5013183;28;20040;-73
2023/01/05 04:26:10;;;;;;;87.80;46.78;;;;;;;9.20;100.00;101412.50;5014755;28;20022;-73
2023/01/05 04:28:36;;;;;;;81.75;41.50;;;;;;;9.17;100.00;101418.75;5011911;28;20034;-73
2023/01/05 04:31:01;;;;;;;79.95;44.45;;;;;;;9.15;100.00;101410.22;5010991;28;20030;-73
2023/01/05 04:33:27;;;;;;;85.30;47.13;;;;;;;9.09;100.00;101418.47;5015609;28;20467;-73
2023/01/05 04:35:52;;;;;;;81.85;45.08;;;;;;;9.07;100.00;101411.72;5010920;28;20026;-73
2023/01/05 04:38:18;;;;;;;80.90;44.58;;;;;;;9.07;100.00;101407.34;5012651;28;20038;-74
2023/01/05 04:40:48;;;;;;;74.57;42.20;;;;;;;9.09;100.00;101415.03;5011693;28;20060;-74
2023/01/05 04:43:13;;;;;;;86.32;45.85;;;;;;;9.11;100.00;101411.38;5011839;28;20132;-73
2023/01/05 04:45:38;;;;;;;84.28;45.70;;;;;;;9.12;100.00;101405.25;5012555;28;20146;-73
2023/01/05 04:48:04;;;;;;;84.47;44.17;;;;;;;9.12;100.00;101400.06;5016768;28;20022;-73
2023/01/05 04:50:29;;;;;;;82.32;45.00;;;;;;;9.13;100.00;101395.69;5010037;28;20114;-74
2023/01/05 04:52:55;;;;;;;81.10;46.25;;;;;;;9.12;100.00;101401.81;5013069;28;20018;-73
2023/01/05 04:55:20;;;;;;;83.93;45.13;;;;;;;9.13;100.00;101395.69;5014687;28;20049;-74
2023/01/05 04:57:46;;;;;;;75.82;40.30;;;;;;;9.16;100.00;101392.84;5016832;28;20026;-73
2023/01/05 05:00:11;;;;;;;78.22;44.08;;;;;;;9.19;100.00;101400.44;5018925;28;20033;-73
2023/01/05 05:02:37;;;;;;;73.32;41.97;;;;;;;9.19;100.00;101401.25;5009864;28;21492;-73
2023/01/05 05:05:02;;;;;;;82.60;45.03;;;;;;;9.19;100.00;101392.63;5013291;28;20040;-74
2023/01/05 05:07:28;;;;;;;73.05;43.40;;;;;;;9.14;100.00;101387.75;5012344;28;20381;-74
2023/01/05 05:09:53;;;;;;;75.00;42.03;;;;;;;9.16;100.00;101388.47;5006695;28;20068;-74
2023/01/05 05:12:19;;;;;;;82.68;44.83;;;;;;;9.17;100.00;101384.13;5008986;28;20040;-73
2023/01/05 05:14:47;;;;;;;65.25;38.75;;;;;;;9.16;100.00;101385.88;5011502;28;20072;-73
2023/01/05 05:17:13;;;;;;;76.55;45.13;;;;;;;9.15;100.00;101373.81;5001970;28;20073;-73
2023/01/05 05:19:39;;;;;;;80.47;44.35;;;;;;;9.12;100.00;101381.03;5013984;28;20056;-73
2023/01/05 05:22:04;;;;;;;77.00;43.75;;;;;;;9.13;100.00;101383.50;5004117;28;20596;-73
2023/01/05 05:24:30;;;;;;;77.95;43.00;;;;;;;9.14;100.00;101382.56;5007209;28;20069;-74
2023/01/05 05:26:56;;;;;;;82.60;45.20;;;;;;;9.11;100.00;101385.38;5008677;28;20045;-73
2023/01/05 05:29:22;;;;;;;84.40;44.25;;;;;;;9.08;100.00;101382.19;5006614;28;20037;-73
2023/01/05 05:31:48;;;;;;;78.78;42.97;;;;;;;9.09;100.00;101381.25;4992840;28;20040;-73
2023/01/05 05:34:13;;;;;;;78.03;43.55;;;;;;;9.11;100.00;101387.16;5004035;28;20034;-73
2023/01/05 05:36:39;;;;;;;80.60;43.17;;;;;;;9.11;100.00;101388.00;5008736;28;20080;-73
2023/01/05 05:39:04;;;;;;;90.85;46.40;;;;;;;9.09;100.00;101378.66;5010520;28;20025;-74
2023/01/05 05:41:30;;;;;;;79.03;43.45;;;;;;;9.10;100.00;101388.09;5007741;28;20113;-73
2023/01/05 05:43:59;;;;;;;85.93;44.95;;;;;;;9.05;100.00;101383.25;5009632;28;20088;-73
2023/01/05 05:46:26;;;;;;;82.47;44.30;;;;;;;8.99;100.00;101381.09;5015707;28;20068;-73
2023/01/05 05:48:53;;;;;;;83.72;44.65;;;;;;;8.99;100.00;101378.47;5012804;28;20033;-74
2023/01/05 05:51:18;;;;;;;80.35;46.45;;;;;;;9.01;100.00;101370.56;5006043;28;20030;-74
2023/01/05 05:53:44;;;;;;;79.97;44.00;;;;;;;9.00;100.00;101380.13;4995394;28;20049;-73
2023/01/05 05:56:09;;;;;;;84.15;46.13;;;;;;;8.98;100.00;101369.84;4996253;28;20030;-73
2023/01/05 05:58:34;;;;;;;84.68;45.45;;;;;;;8.98;100.00;101362.06;4995395;28;20073;-73
2023/01/05 06:01:00;;;;;;;77.18;42.85;;;;;;;8.99;100.00;101360.28;4991621;28;20058;-73
2023/01/05 06:03:25;;;;;;;79.05;41.10;;;;;;;9.01;100.00;101375.78;5007727;28;20486;-73
2023/01/05 06:05:52;;;;;;;78.45;42.53;;;;;;;9.02;100.00;101369.63;5005954;28;20025;-73
2023/01/05 06:08:17;;;;;;;83.28;43.17;;;;;;;9.01;100.00;101367.97;5010231;28;20029;-73
2023/01/05 06:10:42;;;;;;;76.13;41.63;;;;;;;9.05;100.00;101377.22;5012120;28;20029;-72
2023/01/05 06:13:08;;;;;;;75.38;42.03;;;;;;;9.04;100.00;101370.34;5008208;28;20032;-73
2023/01/05 06:15:34;;;;;;;75.32;41.08;;;;;;;9.06;100.00;101371.06;5009857;28;20033;-73
2023/01/05 06:17:59;;;;;;;72.07;39.30;;;;;;;9.09;100.00;101374.28;5009367;28;20092;-73
2023/01/05 06:20:24;;;;;;;79.43;40.83;;;;;;;9.09;100.00;101386.44;5009350;28;20118;-73
2023/01/05 06:22:50;;;;;;;77.40;41.80;;;;;;;9.09;100.00;101389.03;5010232;28;20042;-73
2023/01/05 06:25:15;;;;;;;65.68;35.95;;;;;;;9.08;100.00;101392.59;5009206;28;20040;-73
2023/01/05 06:27:41;;;;;;;77.00;41.03;;;;;;;9.09;100.00;101389.88;5007469;28;20022;-73
2023/01/05 06:30:07;;;;;;;67.85;38.83;;;;;;;9.10;100.00;101385.50;5015185;28;20041;-73
2023/01/05 06:32:33;;;;;;;72.13;40.10;;;;;;;9.11;100.00;101390.59;5012897;28;20125;-73
2023/01/05 06:34:58;;;;;;;69.25;37.97;;;;;;;9.12;100.00;101386.22;5014076;28;20523;-73
2023/01/05 06:37:23;;;;;;;78.18;42.25;;;;;;;9.13;100.00;101390.47;5007251;28;20512;-73
2023/01/05 06:39:49;;;;;;;74.95;40.42;;;;;;;9.12;100.00;101381.03;5009164;28;20037;-72
2023/01/05 06:42:14;;;;;;;78.93;42.20;;;;;;;9.10;100.00;101370.72;5010153;28;20034;-73
2023/01/05 06:44:41;;;;;;;73.10;41.45;;;;;;;9.09;100.00;101376.88;5009163;28;20037;-73
2023/01/05 06:47:07;;;;;;;76.60;41.90;;;;;;;9.07;100.00;101375.31;5006668;28;20143;-73
2023/01/05 06:49:32;;;;;;;79.40;41.38;;;;;;;9.04;100.00;101362.56;5042170;28;20137;-73
2023/01/05 06:51:57;;;;;;;78.53;40.78;;;;;;;9.03;100.00;101359.13;5014470;28;20466;-73
2023/01/05 06:54:23;;;;;;;73.95;40.58;;;;;;;9.04;100.00;101362.56;5008193;28;20058;-73
2023/01/05 06:56:48;;;;;;;77.68;42.38;;;;;;;9.04;100.00;101365.16;5010301;28;20037;-73
2023/01/05 06:59:14;;;;;;;75.07;39.67;;;;;;;9.00;100.00;101374.94;5005108;28;20054;-73
2023/01/05 07:01:39;;;;;;;72.55;39.45;;;;;;;8.98;100.00;101376.81;5010879;28;20046;-73
2023/01/05 07:04:05;;;;;;;75.15;37.85;;;;;;;8.96;100.00;101376.97;5017547;28;20037;-73
2023/01/05 07:06:30;;;;;;;78.43;40.53;;;;;;;8.97;100.00;101376.03;5019649;28;20034;-73
2023/01/05 07:08:56;;;;;;;81.07;42.22;;;;;;;9.01;100.00;101381.81;5008234;28;20108;-73
2023/01/05 07:11:21;;;;;;;84.30;44.47;;;;;;;9.01;100.00;101380.97;5002925;28;20124;-73
2023/01/05 07:13:49;;;;;;;91.30;44.95;;;;;;;8.98;100.00;101382.03;5012891;28;20034;-73
2023/01/05 07:16:16;;;;;;;82.45;44.03;;;;;;;8.98;100.00;101387.22;5014944;28;20095;-73
2023/01/05 07:18:42;;;;;;;86.03;43.30;;;;;;;8.98;100.00;101382.03;5012089;28;20437;-72
2023/01/05 07:21:07;;;;;;;93.68;44.22;;;;;;;8.98;100.00;101380.25;5017662;28;20034;-73
2023/01/05 07:23:36;;;;;;;91.15;43.63;;;;;;;9.00;100.00;101377.53;5013294;28;20037;-73
2023/01/05 07:26:02;;;;;;;89.07;44.83;;;;;;;9.04;100.00;101378.16;5012149;28;20030;-73
2023/01/05 07:28:28;;;;;;;87.30;43.80;;;;;;;9.04;100.00;101385.94;5011717;28;20030;-73
2023/01/05 07:30:53;;;;;;;90.15;44.85;;;;;;;9.03;100.00;101392.09;5013762;28;20048;-73
2023/01/05 07:33:19;;;;;;;79.80;41.58;;;;;;;9.01;100.00;101392.19;5011845;28;20030;-73
2023/01/05 07:35:44;;;;;;;86.45;45.20;;;;;;;9.02;100.00;101393.03;5015585;28;20122;-73
2023/01/05 07:38:10;;;;;;;85.40;42.95;;;;;;;9.01;100.00;101396.56;5009561;28;20045;-73
2023/01/05 07:40:35;;;;;;;93.55;43.58;;;;;;;8.99;100.00;101394.06;5013475;28;20033;-73
2023/01/05 07:43:01;;;;;;;91.43;43.67;;;;;;;9.01;100.00;101388.78;5013094;28;20496;-73
2023/01/05 07:45:26;;;;;;;91.43;46.47;;;;;;;9.00;100.00;101393.13;5013478;28;20088;-73
2023/01/05 07:47:52;;;;;;;88.93;43.33;;;;;;;9.01;100.00;101392.19;5015890;28;20037;-73
2023/01/05 07:50:17;;;;;;;102.38;45.53;;;;;;;9.03;100.00;101394.69;5015668;28;20056;-73
2023/01/05 07:52:43;;;;;;;91.32;45.40;;;;;;;9.00;100.00;101400.94;5014077;28;20084;-73
2023/01/05 07:55:09;;;;;;;94.82;45.25;;;;;;;8.99;100.00;101400.09;5013913;28;20025;-73
2023/01/05 07:57:34;;;;;;;96.05;46.10;;;;;;;8.99;100.00;101394.06;5015280;28;20038;-73
2023/01/05 08:00:00;;;;;;;95.72;44.53;;;;;;;9.02;100.00;101401.66;5010154;28;20099;-73
2023/01/05 08:02:26;;;;;;;88.63;43.65;;;;;;;9.01;100.00;101401.75;4999623;28;20030;-73
2023/01/05 08:04:52;;;;;;;92.53;42.85;;;;;;;9.01;100.00;101401.75;5015146;28;20500;-73
2023/01/05 08:07:18;;;;;;;91.43;43.30;;;;;;;9.03;100.00;101411.13;5011619;28;20124;-73
2023/01/05 08:12:28;;;;;;;88.00;43.50;;;;;;;8.99;100.00;101394.06;5008585;28;20112;-73
2023/01/05 08:14:53;;;;;;;89.72;44.20;;;;;;;9.01;100.00;101399.16;5015953;28;20092;-73
2023/01/05 08:17:19;;;;;;;92.93;42.95;;;;;;;9.02;100.00;101396.47;5013614;28;20041;-73
2023/01/05 08:19:45;;;;;;;84.80;41.75;;;;;;;9.03;100.00;101390.31;5012432;28;20033;-73
2023/01/05 08:22:10;;;;;;;84.88;41.88;;;;;;;9.05;100.00;101393.63;5015777;28;20136;-73
2023/01/05 08:24:35;;;;;;;92.05;41.95;;;;;;;9.08;100.00;101398.63;5013334;28;20026;-73
2023/01/05 08:27:01;;;;;;;84.88;41.25;;;;;;;9.07;100.00;101391.75;5011776;28;20405;-73
2023/01/05 08:29:27;;;;;;;83.10;41.75;;;;;;;9.02;100.00;101393.84;5008436;28;20087;-72
2023/01/05 08:31:53;;;;;;;92.32;41.25;;;;;;;9.04;100.00;101391.97;5008429;28;20037;-73
2023/01/05 08:34:19;;;;;;;85.57;41.95;;;;;;;9.03;100.00;101395.53;5007924;28;20079;-73
2023/01/05 08:36:45;;;;;;;85.07;40.78;;;;;;;8.98;100.00;101393.25;5009888;28;20037;-73
2023/01/05 08:39:11;;;;;;;80.72;39.45;;;;;;;8.94;100.00;101391.84;5008852;28;20091;-73
2023/01/05 08:41:38;;;;;;;81.28;38.78;;;;;;;8.95;100.00;101403.06;5006261;28;20799;-73
2023/01/05 08:44:06;;;;;;;85.55;40.33;;;;;;;8.93;100.00;101395.38;5008565;28;20033;-73
2023/01/05 08:46:34;;;;;;;86.57;39.97;;;;;;;8.97;100.00;101394.22;5008418;28;20068;-73
2023/01/05 08:49:03;;;;;;;84.40;41.03;;;;;;;8.98;100.00;101402.81;5008852;28;20038;-73
2023/01/05 08:51:29;;;;;;;89.82;42.35;;;;;;;9.01;100.00;101401.75;5006336;28;20481;-73
2023/01/05 08:53:55;;;;;;;88.35;40.25;;;;;;;9.01;100.00;101401.75;5010909;28;20088;-73
2023/01/05 08:56:24;;;;;;;87.60;40.92;;;;;;;9.06;100.00;101408.28;5013082;28;20476;-73
2023/01/05 08:58:50;;;;;;;88.13;41.30;;;;;;;9.03;100.00;101411.13;5037991;28;20125;-73
2023/01/05 09:01:20;;;;;;;86.63;41.97;;;;;;;9.03;100.00;101410.28;5008246;28;20133;-73
2023/01/05 09:03:46;;;;;;;91.97;42.83;;;;;;;9.02;100.00;101408.63;5009255;28;20139;-73
2023/01/05 09:06:13;;;;;;;84.20;40.55;;;;;;;9.05;100.00;101403.22;5016192;28;20309;-73
2023/01/05 09:08:43;;;;;;;84.28;39.95;;;;;;;9.01;100.00;101406.97;5014791;28;20042;-73
2023/01/05 09:11:19;;;;;;;88.38;42.95;;;;;;;8.97;100.00;101411.59;5012298;28;20079;-73
2023/01/05 09:13:50;;;;;;;91.63;40.70;;;;;;;8.99;100.00;101415.69;5008776;28;20022;-73
2023/01/05 09:16:19;;;;;;;88.40;42.05;;;;;;;8.98;100.00;101400.22;5026281;28;20046;-73
2023/01/05 09:18:46;;;;;;;89.90;42.42;;;;;;;8.96;100.00;101408.16;5012844;28;20018;-73
2023/01/05 09:21:12;;;;;;;86.35;41.80;;;;;;;8.96;100.00;101402.97;5008256;28;20033;-73
2023/01/05 09:23:38;;;;;;;90.40;42.88;;;;;;;8.94;100.00;101401.41;5006297;28;20295;-73
2023/01/05 09:26:06;;;;;;;83.82;42.13;;;;;;;8.92;100.00;101411.91;5008304;28;20635;-72
2023/01/05 09:28:34;;;;;;;86.15;41.35;;;;;;;8.89;100.00;101406.09;5008299;28;20109;-72
2023/01/05 09:31:15;;;;;;;90.95;42.13;;;;;;;8.91;100.00;101409.44;5014204;28;20488;-72
2023/01/05 09:33:41;;;;;;;85.40;41.53;;;;;;;8.87;100.00;101406.22;5003417;28;20089;-72
2023/01/05 09:36:10;;;;;;;86.50;42.13;;;;;;;8.89;100.00;101406.09;5008401;28;20033;-72
2023/01/05 09:38:37;;;;;;;89.20;41.53;;;;;;;8.87;100.00;101408.81;5022570;28;20052;-73
2023/01/05 09:41:34;;;;;;;88.00;41.00;;;;;;;8.86;100.00;101399.38;5009542;28;20103;-72
2023/01/05 09:44:15;;;;;;;85.93;40.15;;;;;;;8.87;100.00;101406.22;5008127;28;20509;-71
2023/01/05 09:46:44;;;;;;;88.78;41.13;;;;;;;8.90;100.00;101406.00;5009516;28;20463;-73
2023/01/05 09:49:15;;;;;;;93.35;41.40;;;;;;;8.92;100.00;101409.31;5010699;28;20564;-72
2023/01/05 09:51:41;;;;;;;91.80;42.03;;;;;;;8.88;100.00;101405.28;5008056;28;20573;-73
2023/01/05 09:54:16;;;;;;;90.70;42.95;;;;;;;8.88;100.00;101399.25;5005091;28;20369;-73
2023/01/05 09:56:44;;;;;;;98.38;44.15;;;;;;;8.89;100.00;101391.34;5005996;28;20796;-73
2023/01/05 09:59:35;;;;;;;84.20;41.28;;;;;;;8.90;100.00;101400.81;5009907;28;20046;-73
2023/01/05 10:02:16;;;;;;;82.00;41.33;;;;;;;8.89;100.00;101383.53;5005303;28;20406;-73
2023/01/05 10:04:43;;;;;;;93.45;42.60;;;;;;;8.91;100.00;101383.44;5015010;28;20026;-73
2023/01/05 10:07:25;;;;;;;93.30;42.95;;;;;;;8.91;100.00;101386.88;5009947;28;20025;-73
2023/01/05 10:09:53;;;;;;;87.45;41.58;;;;;;;8.92;100.00;101383.31;5014119;28;20470;-73
2023/01/05 10:15:29;;;;;;;83.75;40.50;;;;;;;8.90;100.00;101382.59;5006986;28;20523;-73
2023/01/05 10:17:54;;;;;;;87.70;41.42;;;;;;;8.92;100.00;101372.09;5007347;28;20033;-73
2023/01/05 10:20:20;;;;;;;100.35;42.22;;;;;;;8.92;100.00;101370.34;5014713;28;20032;-72
2023/01/05 10:23:23;;;;;;;93.63;43.65;;;;;;;8.94;100.00;101371.06;5013344;28;20025;-72
2023/01/05 10:26:19;;;;;;;88.07;42.60;;;;;;;9.01;100.00;101370.56;5019341;28;20120;-72
2023/01/05 10:29:09;;;;;;;88.72;41.63;;;;;;;9.00;100.00;101374.94;5008921;28;20046;-73
2023/01/05 10:31:46;;;;;;;90.60;42.22;;;;;;;8.98;100.00;101364.66;5014208;28;20042;-73
2023/01/05 10:34:42;;;;;;;90.47;42.83;;;;;;;9.01;100.00;101361.00;5008401;28;20072;-73
2023/01/05 10:37:19;;;;;;;84.82;40.80;;;;;;;9.04;100.00;101368.59;5004891;28;20046;-73
2023/01/05 10:40:06;;;;;;;88.60;41.40;;;;;;;9.09;100.00;101369.06;5014940;28;20038;-72
2023/01/05 10:42:51;;;;;;;82.32;40.25;;;;;;;9.04;100.00;101368.59;5009567;28;20042;-72
2023/01/05 10:45:19;;;;;;;84.38;40.50;;;;;;;8.99;100.00;101368.91;5009362;28;20065;-72
2023/01/05 10:47:47;;;;;;;86.00;41.72;;;;;;;8.98;100.00;101356.84;5011617;28;20034;-73
2023/01/05 10:50:26;;;;;;;79.65;39.03;;;;;;;8.97;100.00;101359.59;5013592;28;20029;-72
2023/01/05 10:52:53;;;;;;;85.45;41.15;;;;;;;9.00;100.00;101354.16;5008482;28;20057;-72
2023/01/05 10:55:20;;;;;;;85.22;40.88;;;;;;;9.01;100.00;101349.78;5019406;28;20473;-72
2023/01/05 10:57:46;;;;;;;87.03;41.90;;;;;;;9.02;100.00;101351.44;5013069;28;20038;-69
2023/01/05 11:00:20;;;;;;;82.38;39.78;;;;;;;8.97;100.00;101350.03;5019770;28;20082;-69
2023/01/05 11:02:49;;;;;;;87.15;42.65;;;;;;;8.98;100.00;101356.03;5010711;28;20034;-68
2023/01/05 11:05:32;;;;;;;85.72;41.50;;;;;;;8.99;100.00;101360.28;5019045;28;20034;-69
2023/01/05 11:08:01;;;;;;;86.35;42.00;;;;;;;9.05;100.00;101346.00;5009225;28;20042;-69
2023/01/05 11:10:37;;;;;;;85.85;40.95;;;;;;;9.02;100.00;101346.25;5007754;28;20038;-69
2023/01/05 11:13:04;;;;;;;;;;;;;;;8.96;100.00;101344.94;5013166;28;20492;-69
2023/01/05 11:15:33;;;;;;;80.18;40.03;;;;;;;8.92;100.00;101341.75;5006842;28;19925;-69
2023/01/05 11:17:58;;;;;;;93.15;43.05;;;;;;;8.97;100.00;101341.41;5017933;28;20057;-68
2023/01/05 11:20:28;;;;;;;89.43;41.63;;;;;;;8.99;100.00;101337.72;5007155;28;20060;-69
2023/01/05 11:22:55;;;;;;;86.10;41.55;;;;;;;9.05;100.00;101340.81;5000047;28;20465;-69
2023/01/05 11:25:31;;;;;;;86.32;40.72;;;;;;;9.03;100.00;101335.72;5012184;28;20065;-68
2023/01/05 11:28:04;;;;;;;83.25;40.17;;;;;;;9.05;100.00;101336.44;5008899;28;20049;-69
2023/01/05 11:30:30;;;;;;;79.75;39.28;;;;;;;9.06;100.00;101337.28;5011523;28;20038;-69
2023/01/05 11:32:58;;;;;;;76.95;37.95;;;;;;;9.06;100.00;101332.91;5012874;28;20042;-69
2023/01/05 11:35:30;;;;;;;86.63;41.78;;;;;;;9.05;100.00;101335.63;5011856;28;20034;-69
2023/01/05 11:37:56;;;;;;;75.40;36.70;;;;;;;9.07;100.00;101331.13;5014721;28;20068;-69
2023/01/05 11:40:27;;;;;;;81.10;38.30;;;;;;;9.07;100.00;101323.34;5011677;28;20042;-69
2023/01/05 11:42:53;;;;;;;77.88;38.63;;;;;;;9.04;100.00;101323.56;5015174;28;20057;-69
2023/01/05 11:45:23;;;;;;;74.50;38.08;;;;;;;9.08;100.00;101331.03;5012925;28;20497;-69
2023/01/05 11:47:58;;;;;;;73.85;37.40;;;;;;;9.14;100.00;101327.13;5017450;28;20072;-68
2023/01/05 11:50:27;;;;;;;73.22;37.28;;;;;;;9.20;100.00;101314.50;5010248;28;20049;-69
2023/01/05 11:52:54;;;;;;;70.35;35.80;;;;;;;9.17;100.00;101313.91;5016300;28;20032;-68